createdAt,value
2017-09-14T00:00:15.563Z,58.83
2017-09-14T00:01:15.636Z,59.5
2017-09-14T00:02:15.612Z,58.92
2017-09-14T00:03:15.632Z,59.31
2017-09-14T00:04:15.661Z,59.02
2017-09-14T00:05:15.680Z,59.22
2017-09-14T00:06:15.703Z,59.66
2017-09-14T00:07:15.734Z,59.02
2017-09-14T00:08:15.750Z,59.5
2017-09-14T00:09:15.778Z,59.99
2017-09-14T00:10:15.796Z,59.22
2017-09-14T00:11:15.829Z,59.79
2017-09-14T00:12:16.154Z,59.31
2017-09-14T00:13:15.872Z,59.99
2017-09-14T00:14:15.890Z,59.76
2017-09-14T00:15:15.916Z,59.57
2017-09-14T00:16:15.939Z,59.57
2017-09-14T00:17:16.019Z,59.66
2017-09-14T00:18:15.991Z,59.76
2017-09-14T00:19:16.011Z,59.76
2017-09-14T00:20:16.030Z,59.86
2017-09-14T00:21:16.057Z,59.86
2017-09-14T00:22:16.089Z,59.57
2017-09-14T00:23:16.101Z,60.05
2017-09-14T00:24:16.129Z,59.76
2017-09-14T00:25:16.154Z,60.14
2017-09-14T00:26:16.176Z,59.95
2017-09-14T00:27:16.196Z,59.76
2017-09-14T00:28:16.219Z,59.95
2017-09-14T00:29:20.903Z,60.05
2017-09-14T00:30:16.291Z,60.05
2017-09-14T00:31:16.316Z,60.05
2017-09-14T00:32:16.634Z,60.82
2017-09-14T00:33:16.337Z,60.53
2017-09-14T00:34:16.362Z,60.34
2017-09-14T00:35:16.434Z,60.72
2017-09-14T00:36:16.408Z,60.53
2017-09-14T00:37:16.441Z,60.82
2017-09-14T00:38:16.459Z,60.63
2017-09-14T00:39:16.486Z,60.63
2017-09-14T00:40:16.514Z,60.63
2017-09-14T00:41:16.834Z,60.63
2017-09-14T00:42:16.548Z,60.91
2017-09-14T00:43:16.879Z,60.63
2017-09-14T00:44:16.596Z,61.11
2017-09-14T00:45:16.616Z,60.91
2017-09-14T00:46:16.644Z,60.53
2017-09-14T00:47:16.665Z,61.01
2017-09-14T00:48:16.690Z,60.72
2017-09-14T00:49:16.722Z,60.91
2017-09-14T00:50:16.785Z,61.2
2017-09-14T00:51:16.757Z,61.4
2017-09-14T00:52:16.790Z,60.91
2017-09-14T00:53:16.809Z,61.49
2017-09-14T00:54:16.837Z,61.87
2017-09-14T00:55:16.858Z,61.87
2017-09-14T00:56:16.873Z,61.87
2017-09-14T00:57:16.899Z,62.13
2017-09-14T00:58:16.922Z,62.23
2017-09-14T00:59:16.949Z,62.13
2017-09-14T01:00:16.981Z,62.52
2017-09-14T01:01:16.995Z,62.35
2017-09-14T01:02:17.014Z,62.84
2017-09-14T01:03:17.043Z,62.64
2017-09-14T01:04:17.061Z,62.64
2017-09-14T01:05:17.082Z,62.55
2017-09-14T01:06:17.109Z,62.35
2017-09-14T01:07:17.130Z,62.42
2017-09-14T01:08:17.159Z,62.61
2017-09-14T01:09:17.233Z,62.71
2017-09-14T01:10:17.204Z,62.81
2017-09-14T01:11:17.544Z,62.9
2017-09-14T01:12:17.251Z,63.19
2017-09-14T01:13:17.274Z,62.81
2017-09-14T01:14:17.297Z,63.48
2017-09-14T01:15:17.320Z,63.22
2017-09-14T01:16:17.656Z,63.86
2017-09-14T01:17:17.361Z,63.86
2017-09-14T01:18:17.388Z,63.67
2017-09-14T01:19:17.413Z,64.43
2017-09-14T01:20:17.438Z,63.48
2017-09-14T01:21:17.459Z,64.25
2017-09-14T01:22:17.482Z,63.96
2017-09-14T01:23:17.500Z,64.82
2017-09-14T01:24:17.533Z,64.92
2017-09-14T01:25:17.548Z,64.82
2017-09-14T01:26:17.628Z,64.72
2017-09-14T01:27:17.604Z,65.49
2017-09-14T01:28:17.627Z,65.4
2017-09-14T01:29:17.650Z,65.2
2017-09-14T01:30:17.669Z,65.4
2017-09-14T01:31:17.702Z,65.49
2017-09-14T01:32:17.737Z,65.2
2017-09-14T01:33:17.737Z,65.11
2017-09-14T01:34:17.768Z,65.2
2017-09-14T01:35:17.782Z,65.11
2017-09-14T01:36:17.813Z,65.11
2017-09-14T01:37:17.835Z,65.27
2017-09-14T01:38:17.980Z,65.36
2017-09-14T01:39:17.881Z,66.03
2017-09-14T01:40:18.217Z,65.94
2017-09-14T01:41:17.926Z,65.84
2017-09-14T01:42:17.951Z,65.84
2017-09-14T01:43:17.972Z,66.13
2017-09-14T01:44:17.993Z,66.13
2017-09-14T01:45:18.023Z,65.46
2017-09-14T01:46:18.047Z,65.84
2017-09-14T01:47:18.065Z,66.03
2017-09-14T01:48:18.088Z,65.46
2017-09-14T01:49:18.108Z,65.84
2017-09-14T01:50:18.131Z,65.75
2017-09-14T01:51:18.155Z,66.03
2017-09-14T01:52:18.493Z,66.33
2017-09-14T01:53:18.201Z,65.56
2017-09-14T01:54:18.223Z,65.56
2017-09-14T01:55:18.260Z,65.56
2017-09-14T01:56:18.279Z,65.27
2017-09-14T01:57:18.302Z,65.65
2017-09-14T01:58:18.317Z,65.27
2017-09-14T01:59:18.339Z,65.36
2017-09-14T02:00:18.365Z,65.17
2017-09-14T02:01:18.440Z,65.62
2017-09-14T02:02:18.419Z,65.52
2017-09-14T02:03:18.440Z,64.85
2017-09-14T02:04:18.460Z,65.72
2017-09-14T02:05:18.480Z,65.33
2017-09-14T02:06:18.503Z,65.91
2017-09-14T02:07:18.533Z,65.91
2017-09-14T02:08:18.551Z,65.33
2017-09-14T02:09:18.570Z,65.05
2017-09-14T02:10:18.905Z,65.33
2017-09-14T02:11:18.616Z,65.81
2017-09-14T02:12:18.954Z,65.05
2017-09-14T02:13:18.667Z,65.33
2017-09-14T02:14:18.687Z,65.72
2017-09-14T02:15:18.712Z,65.52
2017-09-14T02:16:18.788Z,66.39
2017-09-14T02:17:18.754Z,66.29
2017-09-14T02:18:18.779Z,66.39
2017-09-14T02:19:18.795Z,66.39
2017-09-14T02:20:18.823Z,66.96
2017-09-14T02:21:18.844Z,66.58
2017-09-14T02:22:18.865Z,66.39
2017-09-14T02:23:18.891Z,66.96
2017-09-14T02:24:18.915Z,67.16
2017-09-14T02:25:18.936Z,66.96
2017-09-14T02:26:18.970Z,67.16
2017-09-14T02:27:18.982Z,66.58
2017-09-14T02:28:19.004Z,66.96
2017-09-14T02:29:19.024Z,67.25
2017-09-14T02:30:19.050Z,67.06
2017-09-14T02:31:19.073Z,67.35
2017-09-14T02:32:19.089Z,67.16
2017-09-14T02:33:19.121Z,67.83
2017-09-14T02:34:19.139Z,66.77
2017-09-14T02:35:19.474Z,67.35
2017-09-14T02:36:19.181Z,67.16
2017-09-14T02:37:19.206Z,66.96
2017-09-14T02:38:19.228Z,67.79
2017-09-14T02:39:19.252Z,67.99
2017-09-14T02:40:19.276Z,67.6
2017-09-14T02:41:19.310Z,67.44
2017-09-14T02:42:19.314Z,67.63
2017-09-14T02:43:19.339Z,67.54
2017-09-14T02:44:19.365Z,67.73
2017-09-14T02:45:19.383Z,68.02
2017-09-14T02:46:19.407Z,67.83
2017-09-14T02:47:19.437Z,68.02
2017-09-14T02:48:19.464Z,67.54
2017-09-14T02:49:19.479Z,68.12
2017-09-14T02:50:19.494Z,68.21
2017-09-14T02:51:19.570Z,67.25
2017-09-14T02:52:19.548Z,68.3
2017-09-14T02:53:19.563Z,68.12
2017-09-14T02:54:19.588Z,67.73
2017-09-14T02:55:19.614Z,68.5
2017-09-14T02:56:19.648Z,68.59
2017-09-14T02:57:19.652Z,69.46
2017-09-14T02:58:19.692Z,68.59
2017-09-14T02:59:19.709Z,68.88
2017-09-14T03:00:19.725Z,68.5
2017-09-14T03:01:19.745Z,68.69
2017-09-14T03:02:19.770Z,68.12
2017-09-14T03:03:19.812Z,68.59
2017-09-14T03:04:19.810Z,68.3
2017-09-14T03:05:19.838Z,69.26
2017-09-14T03:06:19.906Z,68.5
2017-09-14T03:07:19.892Z,68.21
2017-09-14T03:08:19.910Z,67.83
2017-09-14T03:09:19.929Z,69.17
2017-09-14T03:10:19.950Z,69.36
2017-09-14T03:11:19.981Z,68.4
2017-09-14T03:12:19.995Z,68.59
2017-09-14T03:13:20.018Z,68.12
2017-09-14T03:14:20.042Z,69.26
2017-09-14T03:15:20.061Z,68.12
2017-09-14T03:16:20.091Z,69.07
2017-09-14T03:17:20.111Z,68.59
2017-09-14T03:18:20.132Z,68.79
2017-09-14T03:19:20.160Z,69.17
2017-09-14T03:20:20.188Z,69.56
2017-09-14T03:21:20.203Z,68.79
2017-09-14T03:22:20.226Z,69.56
2017-09-14T03:23:20.245Z,70.51
2017-09-14T03:24:20.268Z,70.13
2017-09-14T03:25:20.291Z,68.98
2017-09-14T03:26:20.312Z,68.21
2017-09-14T03:27:20.341Z,68.79
2017-09-14T03:28:20.667Z,68.5
2017-09-14T03:29:20.385Z,68.98
2017-09-14T03:30:20.407Z,68.69
2017-09-14T03:31:20.426Z,69.56
2017-09-14T03:32:20.446Z,69.26
2017-09-14T03:33:20.470Z,69.46
2017-09-14T03:34:20.497Z,69.36
2017-09-14T03:35:20.516Z,69.84
2017-09-14T03:36:20.537Z,69.52
2017-09-14T03:37:20.558Z,69.42
2017-09-14T03:38:20.583Z,69.65
2017-09-14T03:39:20.659Z,69.81
2017-09-14T03:40:20.629Z,69.71
2017-09-14T03:41:20.655Z,69.74
2017-09-14T03:42:20.671Z,69.81
2017-09-14T03:43:20.697Z,69.52
2017-09-14T03:44:20.721Z,68.85
2017-09-14T03:45:20.742Z,69.42
2017-09-14T03:46:20.761Z,69.52
2017-09-14T03:47:20.783Z,69.23
2017-09-14T03:48:20.810Z,70.19
2017-09-14T03:49:20.832Z,69.33
2017-09-14T03:50:20.876Z,69.23
2017-09-14T03:51:20.875Z,68.75
2017-09-14T03:52:20.900Z,69.23
2017-09-14T03:53:20.921Z,69.23
2017-09-14T03:54:20.994Z,69.62
2017-09-14T03:55:20.961Z,69.33
2017-09-14T03:56:20.986Z,68.75
2017-09-14T03:57:21.016Z,68.66
2017-09-14T03:58:21.034Z,68.75
2017-09-14T03:59:21.058Z,69.04
2017-09-14T04:00:21.074Z,68.66
2017-09-14T04:01:21.101Z,68.75
2017-09-14T04:02:21.119Z,68.56
2017-09-14T04:03:21.145Z,68.66
2017-09-14T04:04:21.169Z,68.66
2017-09-14T04:05:21.508Z,69.13
2017-09-14T04:06:21.261Z,68.95
2017-09-14T04:07:21.231Z,68.85
2017-09-14T04:08:21.253Z,69.04
2017-09-14T04:09:21.282Z,68.75
2017-09-14T04:10:21.304Z,69.04
2017-09-14T04:11:21.373Z,69.52
2017-09-14T04:12:21.349Z,69.23
2017-09-14T04:13:21.399Z,68.75
2017-09-14T04:14:21.413Z,69.33
2017-09-14T04:15:21.420Z,69.23
2017-09-14T04:16:21.484Z,69.33
2017-09-14T04:17:21.454Z,69.23
2017-09-14T04:18:21.475Z,69.42
2017-09-14T04:19:21.500Z,69.33
2017-09-14T04:20:21.529Z,69.62
2017-09-14T04:21:21.642Z,69.62
2017-09-14T04:22:21.567Z,69.42
2017-09-14T04:23:21.597Z,69.42
2017-09-14T04:24:21.614Z,69.52
2017-09-14T04:25:21.635Z,69.71
2017-09-14T04:26:21.653Z,69.62
2017-09-14T04:27:21.680Z,70.29
2017-09-14T04:28:21.707Z,69.81
2017-09-14T04:29:21.727Z,70
2017-09-14T04:30:21.743Z,69.81
2017-09-14T04:31:21.770Z,69.62
2017-09-14T04:32:21.789Z,69.62
2017-09-14T04:33:21.813Z,69.62
2017-09-14T04:34:21.839Z,69.71
2017-09-14T04:35:21.850Z,69.81
2017-09-14T04:36:22.188Z,70
2017-09-14T04:37:21.916Z,69.81
2017-09-14T04:38:21.921Z,70
2017-09-14T04:39:21.996Z,70.38
2017-09-14T04:40:21.963Z,70.48
2017-09-14T04:41:21.988Z,70.29
2017-09-14T04:42:22.008Z,70.09
2017-09-14T04:43:22.044Z,70.09
2017-09-14T04:44:22.080Z,70.38
2017-09-14T04:45:22.081Z,70.57
2017-09-14T04:46:22.098Z,70.76
2017-09-14T04:47:22.127Z,70.86
2017-09-14T04:48:22.460Z,70.96
2017-09-14T04:49:22.169Z,71.05
2017-09-14T04:50:22.189Z,70.67
2017-09-14T04:51:22.216Z,70.76
2017-09-14T04:52:22.232Z,70.67
2017-09-14T04:53:22.571Z,70.86
2017-09-14T04:54:22.280Z,71.15
2017-09-14T04:55:22.352Z,71.05
2017-09-14T04:56:22.323Z,70.67
2017-09-14T04:57:22.343Z,70.57
2017-09-14T04:58:22.371Z,70.86
2017-09-14T04:59:22.393Z,70.86
2017-09-14T05:00:22.464Z,70.67
2017-09-14T05:01:22.436Z,70.96
2017-09-14T05:02:22.466Z,70.76
2017-09-14T05:03:22.480Z,71.15
2017-09-14T05:04:22.501Z,71.92
2017-09-14T05:05:22.527Z,71.63
2017-09-14T05:06:22.544Z,71.63
2017-09-14T05:07:22.570Z,71.63
2017-09-14T05:08:22.588Z,72.01
2017-09-14T05:09:22.616Z,72.01
2017-09-14T05:10:22.634Z,71.82
2017-09-14T05:11:22.657Z,72.49
2017-09-14T05:12:22.678Z,72.11
2017-09-14T05:13:22.703Z,71.92
2017-09-14T05:14:22.731Z,72.3
2017-09-14T05:15:22.746Z,71.72
2017-09-14T05:16:22.774Z,72.3
2017-09-14T05:17:22.790Z,71.92
2017-09-14T05:18:22.874Z,72.49
2017-09-14T05:19:22.838Z,72.3
2017-09-14T05:20:22.865Z,72.3
2017-09-14T05:21:22.880Z,71.92
2017-09-14T05:22:22.905Z,72.01
2017-09-14T05:23:22.930Z,72.49
2017-09-14T05:24:22.960Z,72.49
2017-09-14T05:25:22.972Z,71.82
2017-09-14T05:26:22.994Z,71.82
2017-09-14T05:27:23.014Z,72.3
2017-09-14T05:28:23.040Z,72.3
2017-09-14T05:29:23.060Z,72.2
2017-09-14T05:30:23.104Z,72.3
2017-09-14T05:31:23.115Z,72.3
2017-09-14T05:32:23.129Z,72.11
2017-09-14T05:33:23.201Z,72.05
2017-09-14T05:34:23.172Z,72.53
2017-09-14T05:35:23.197Z,72.14
2017-09-14T05:36:23.227Z,72.53
2017-09-14T05:37:23.257Z,72.14
2017-09-14T05:38:23.280Z,72.43
2017-09-14T05:39:23.615Z,72.53
2017-09-14T05:40:23.627Z,72.43
2017-09-14T05:41:23.340Z,72.14
2017-09-14T05:42:23.354Z,72.33
2017-09-14T05:43:23.377Z,72.43
2017-09-14T05:44:23.458Z,71.57
2017-09-14T05:45:23.422Z,72.33
2017-09-14T05:46:23.448Z,72.05
2017-09-14T05:47:23.466Z,72.05
2017-09-14T05:48:23.490Z,71.95
2017-09-14T05:49:23.891Z,71.95
2017-09-14T05:50:23.540Z,72.14
2017-09-14T05:51:23.563Z,72.14
2017-09-14T05:52:23.580Z,72.14
2017-09-14T05:53:23.609Z,71.61
2017-09-14T05:54:23.650Z,71.86
2017-09-14T05:55:23.648Z,71.37
2017-09-14T05:56:23.672Z,71.66
2017-09-14T05:57:23.691Z,71.37
2017-09-14T05:58:23.720Z,71.47
2017-09-14T05:59:23.739Z,71.51
2017-09-14T06:00:23.759Z,71.61
2017-09-14T06:01:23.782Z,71.51
2017-09-14T06:02:23.807Z,71.61
2017-09-14T06:03:24.135Z,71.57
2017-09-14T06:04:23.853Z,72.18
2017-09-14T06:05:23.878Z,71.95
2017-09-14T06:06:24.003Z,71.66
2017-09-14T06:07:23.924Z,71.8
2017-09-14T06:08:23.951Z,71.7
2017-09-14T06:09:23.964Z,71.8
2017-09-14T06:10:23.988Z,71.61
2017-09-14T06:11:24.012Z,71.7
2017-09-14T06:12:24.035Z,71.41
2017-09-14T06:13:24.057Z,71.7
2017-09-14T06:14:24.079Z,71.51
2017-09-14T06:15:24.110Z,71.12
2017-09-14T06:16:24.127Z,71.22
2017-09-14T06:17:24.151Z,71.03
2017-09-14T06:18:24.173Z,70.64
2017-09-14T06:19:24.200Z,70.74
2017-09-14T06:20:24.221Z,70.84
2017-09-14T06:21:24.290Z,71.22
2017-09-14T06:22:24.263Z,70.36
2017-09-14T06:23:24.287Z,70.26
2017-09-14T06:24:24.329Z,69.81
2017-09-14T06:25:24.339Z,69.81
2017-09-14T06:26:24.358Z,69.87
2017-09-14T06:27:24.383Z,70.07
2017-09-14T06:28:24.403Z,70.07
2017-09-14T06:29:24.441Z,69.91
2017-09-14T06:30:24.449Z,69.81
2017-09-14T06:31:24.483Z,69.34
2017-09-14T06:32:24.496Z,69.81
2017-09-14T06:33:24.521Z,68.95
2017-09-14T06:34:24.541Z,68.85
2017-09-14T06:35:24.572Z,68.6
2017-09-14T06:36:24.590Z,68.12
2017-09-14T06:37:24.612Z,68.21
2017-09-14T06:38:24.644Z,68.31
2017-09-14T06:39:24.658Z,67.64
2017-09-14T06:40:24.683Z,66.97
2017-09-14T06:41:24.708Z,67.45
2017-09-14T06:42:24.734Z,67.35
2017-09-14T06:43:24.752Z,67.25
2017-09-14T06:44:24.775Z,67.35
2017-09-14T06:45:24.801Z,67.07
2017-09-14T06:46:24.825Z,66.1
2017-09-14T06:47:24.846Z,66.71
2017-09-14T06:48:24.881Z,66.2
2017-09-14T06:49:24.896Z,65.94
2017-09-14T06:50:24.916Z,66.14
2017-09-14T06:51:24.939Z,65.46
2017-09-14T06:52:25.278Z,65.84
2017-09-14T06:53:24.989Z,65.27
2017-09-14T06:54:25.015Z,65.17
2017-09-14T06:55:25.050Z,65.37
2017-09-14T06:56:25.059Z,65.5
2017-09-14T06:57:25.101Z,64.92
2017-09-14T06:58:25.110Z,63.95
2017-09-14T06:59:25.136Z,64.43
2017-09-14T07:00:25.159Z,63.67
2017-09-14T07:01:25.179Z,64.15
2017-09-14T07:02:25.202Z,64.15
2017-09-14T07:03:25.233Z,63.31
2017-09-14T07:04:25.253Z,62.83
2017-09-14T07:05:25.274Z,62.54
2017-09-14T07:06:25.300Z,61.58
2017-09-14T07:07:25.322Z,62.35
2017-09-14T07:08:25.355Z,61.87
2017-09-14T07:09:25.373Z,61.29
2017-09-14T07:10:25.401Z,61.58
2017-09-14T07:11:25.424Z,60.62
2017-09-14T07:12:25.444Z,60.75
2017-09-14T07:13:25.474Z,60.75
2017-09-14T07:14:25.494Z,60.75
2017-09-14T07:15:25.522Z,59.97
2017-09-14T07:16:25.545Z,60.07
2017-09-14T07:17:25.571Z,59.52
2017-09-14T07:18:25.598Z,59.62
2017-09-14T07:19:25.620Z,59.81
2017-09-14T07:20:25.645Z,59.72
2017-09-14T07:21:25.678Z,59.69
2017-09-14T07:22:25.696Z,59.81
2017-09-14T07:23:25.722Z,59.33
2017-09-14T07:24:25.745Z,59.23
2017-09-14T07:25:25.775Z,59.27
2017-09-14T07:26:25.799Z,59.36
2017-09-14T07:27:25.823Z,58.78
2017-09-14T07:28:25.852Z,58.3
2017-09-14T07:29:25.870Z,58.01
2017-09-14T07:30:25.952Z,58.04
2017-09-14T07:31:25.922Z,58.01
2017-09-14T07:32:25.952Z,58.33
2017-09-14T07:33:25.975Z,58.42
2017-09-14T07:34:26.521Z,58.33
2017-09-14T07:35:26.050Z,56.88
2017-09-14T07:36:26.049Z,57.65
2017-09-14T07:37:26.078Z,56.59
2017-09-14T07:38:26.100Z,56.98
2017-09-14T07:39:26.126Z,57.94
2017-09-14T07:40:26.615Z,58.14
2017-09-14T07:41:26.185Z,58.14
2017-09-14T07:42:26.289Z,57.65
2017-09-14T07:43:27.019Z,57.65
2017-09-14T07:44:26.607Z,57.56
2017-09-14T07:45:26.969Z,56.62
2017-09-14T07:46:26.908Z,57.2
2017-09-14T07:47:26.721Z,56.52
2017-09-14T07:48:26.397Z,56.07
2017-09-14T07:49:26.706Z,56.36
2017-09-14T07:50:26.431Z,56.56
2017-09-14T07:51:26.433Z,56.72
2017-09-14T07:52:26.470Z,56.91
2017-09-14T07:53:26.485Z,56.43
2017-09-14T07:54:26.884Z,56.33
2017-09-14T07:55:26.538Z,56.36
2017-09-14T07:56:26.561Z,56.16
2017-09-14T07:57:27.015Z,56.36
2017-09-14T07:58:27.157Z,58.87
2017-09-14T07:59:26.647Z,59.35
2017-09-14T08:00:26.671Z,59.06
2017-09-14T08:01:26.692Z,59.06
2017-09-14T08:02:26.723Z,60.28
2017-09-14T08:03:26.749Z,60.58
2017-09-14T08:04:26.770Z,60.35
2017-09-14T08:05:27.193Z,60.93
2017-09-14T08:06:26.833Z,60.86
2017-09-14T08:07:26.848Z,60.83
2017-09-14T08:08:26.886Z,60.83
2017-09-14T08:09:26.931Z,60.83
2017-09-14T08:10:26.944Z,60.93
2017-09-14T08:11:26.954Z,60.19
2017-09-14T08:12:26.977Z,60.86
2017-09-14T08:13:27.008Z,60.86
2017-09-14T08:14:27.034Z,61.32
2017-09-14T08:15:27.054Z,61.68
2017-09-14T08:16:27.082Z,62.06
2017-09-14T08:17:27.445Z,62.45
2017-09-14T08:18:27.141Z,62.35
2017-09-14T08:19:27.167Z,62.35
2017-09-14T08:20:27.181Z,62.63
2017-09-14T08:21:27.208Z,62.6
2017-09-14T08:22:27.235Z,62.9
2017-09-14T08:23:27.264Z,62.99
2017-09-14T08:24:27.634Z,63.38
2017-09-14T08:25:27.309Z,62.7
2017-09-14T08:26:27.716Z,62.19
2017-09-14T08:27:27.907Z,61.9
2017-09-14T08:28:27.762Z,61.77
2017-09-14T08:29:27.411Z,61.77
2017-09-14T08:30:27.437Z,61.97
2017-09-14T08:31:27.460Z,60.62
2017-09-14T08:32:27.490Z,60.81
2017-09-14T08:33:27.516Z,60.72
2017-09-14T08:34:27.542Z,60.72
2017-09-14T08:35:27.561Z,61.39
2017-09-14T08:36:27.583Z,62.23
2017-09-14T08:37:27.613Z,62.71
2017-09-14T08:38:27.645Z,61.74
2017-09-14T08:39:27.979Z,61.39
2017-09-14T08:40:27.683Z,61.77
2017-09-14T08:41:27.710Z,62.35
2017-09-14T08:42:27.732Z,62.93
2017-09-14T08:43:27.760Z,63.38
2017-09-14T08:44:27.785Z,63.18
2017-09-14T08:45:27.807Z,63.67
2017-09-14T08:46:27.851Z,64.73
2017-09-14T08:47:27.854Z,65.2
2017-09-14T08:48:27.886Z,66.61
2017-09-14T08:49:27.905Z,66.81
2017-09-14T08:50:27.933Z,67.19
2017-09-14T08:51:28.265Z,67.03
2017-09-14T08:52:27.980Z,67.22
2017-09-14T08:53:28.004Z,67.8
2017-09-14T08:54:28.030Z,66.46
2017-09-14T08:55:28.046Z,66.27
2017-09-14T08:56:28.075Z,66.52
2017-09-14T08:57:28.097Z,66.23
2017-09-14T08:58:28.174Z,65.08
2017-09-14T08:59:28.148Z,65.33
2017-09-14T09:00:28.166Z,66.2
2017-09-14T09:01:28.191Z,65.81
2017-09-14T09:02:28.221Z,65.23
2017-09-14T09:03:28.240Z,64.56
2017-09-14T09:04:28.260Z,64.85
2017-09-14T09:05:28.289Z,65.59
2017-09-14T09:06:28.311Z,65.3
2017-09-14T09:07:28.363Z,65.4
2017-09-14T09:08:28.354Z,66.46
2017-09-14T09:09:28.379Z,66.13
2017-09-14T09:10:28.401Z,67.57
2017-09-14T09:11:28.435Z,67.47
2017-09-14T09:12:28.453Z,68.24
2017-09-14T09:13:28.473Z,68.44
2017-09-14T09:14:28.498Z,68.08
2017-09-14T09:15:28.530Z,67.22
2017-09-14T09:16:28.549Z,67.76
2017-09-14T09:17:28.577Z,69.01
2017-09-14T09:18:28.592Z,69.3
2017-09-14T09:19:28.613Z,69.46
2017-09-14T09:20:28.640Z,69.87
2017-09-14T09:21:28.660Z,69.26
2017-09-14T09:22:28.683Z,69.17
2017-09-14T09:23:28.706Z,69.84
2017-09-14T09:24:28.749Z,69.42
2017-09-14T09:25:28.755Z,69.71
2017-09-14T09:26:28.780Z,69.42
2017-09-14T09:27:28.797Z,71.4
2017-09-14T09:28:28.820Z,71.21
2017-09-14T09:29:28.844Z,72.07
2017-09-14T09:30:28.867Z,71.78
2017-09-14T09:31:28.888Z,70.83
2017-09-14T09:32:28.911Z,71.66
2017-09-14T09:33:28.945Z,71.84
2017-09-14T09:34:28.958Z,72.61
2017-09-14T09:35:28.978Z,72.23
2017-09-14T09:36:29.000Z,72.9
2017-09-14T09:37:29.022Z,72.03
2017-09-14T09:38:29.050Z,72.42
2017-09-14T09:39:29.438Z,72.8
2017-09-14T09:40:29.093Z,72.74
2017-09-14T09:41:29.129Z,72.07
2017-09-14T09:42:29.449Z,72.27
2017-09-14T09:43:29.155Z,71.4
2017-09-14T09:44:29.186Z,72.27
2017-09-14T09:45:29.252Z,72.71
2017-09-14T09:46:29.226Z,72.45
2017-09-14T09:47:29.264Z,71.78
2017-09-14T09:48:29.581Z,72.32
2017-09-14T09:49:29.676Z,72.61
2017-09-14T09:50:29.317Z,71.46
2017-09-14T09:51:29.334Z,72.8
2017-09-14T09:52:29.359Z,72.32
2017-09-14T09:53:29.376Z,72.42
2017-09-14T09:54:29.398Z,71.27
2017-09-14T09:55:29.425Z,71.08
2017-09-14T09:56:29.448Z,71.66
2017-09-14T09:57:29.477Z,71.17
2017-09-14T09:58:29.496Z,70.92
2017-09-14T09:59:29.513Z,71.11
2017-09-14T10:00:29.587Z,71.11
2017-09-14T10:01:29.555Z,70.92
2017-09-14T10:02:29.582Z,71.4
2017-09-14T10:03:29.600Z,70.73
2017-09-14T10:04:29.620Z,69.77
2017-09-14T10:05:29.647Z,69.2
2017-09-14T10:06:29.666Z,68.78
2017-09-14T10:07:29.695Z,68.97
2017-09-14T10:08:30.055Z,70.41
2017-09-14T10:09:29.733Z,69.17
2017-09-14T10:10:29.761Z,69.26
2017-09-14T10:11:29.798Z,68.78
2017-09-14T10:12:29.798Z,68.87
2017-09-14T10:13:29.820Z,68.78
2017-09-14T10:14:29.844Z,68.59
2017-09-14T10:15:29.862Z,68.27
2017-09-14T10:16:29.885Z,68.46
2017-09-14T10:17:29.911Z,67.88
2017-09-14T10:18:29.946Z,69.03
2017-09-14T10:19:29.953Z,68.65
2017-09-14T10:20:29.973Z,68.17
2017-09-14T10:21:29.998Z,68.74
2017-09-14T10:22:30.021Z,68.65
2017-09-14T10:23:30.042Z,67.98
2017-09-14T10:24:30.064Z,68.23
2017-09-14T10:25:30.081Z,68.13
2017-09-14T10:26:30.103Z,68.52
2017-09-14T10:27:30.129Z,68.52
2017-09-14T10:28:30.354Z,68.23
2017-09-14T10:29:30.485Z,68.87
2017-09-14T10:30:30.191Z,69.09
2017-09-14T10:31:30.213Z,69.73
2017-09-14T10:32:30.233Z,70.59
2017-09-14T10:33:30.304Z,70.59
2017-09-14T10:34:30.276Z,71.73
2017-09-14T10:35:30.304Z,71.22
2017-09-14T10:36:30.317Z,71.32
2017-09-14T10:37:30.337Z,72.37
2017-09-14T10:38:30.363Z,72.85
2017-09-14T10:39:30.383Z,73.33
2017-09-14T10:40:30.404Z,73.8
2017-09-14T10:41:30.421Z,73.43
2017-09-14T10:42:30.443Z,73.71
2017-09-14T10:43:30.467Z,73.61
2017-09-14T10:44:30.489Z,74.57
2017-09-14T10:45:30.506Z,75.34
2017-09-14T10:46:30.529Z,75.71
2017-09-14T10:47:30.555Z,77.34
2017-09-14T10:48:30.624Z,77.06
2017-09-14T10:49:30.590Z,78.58
2017-09-14T10:50:30.609Z,77.78
2017-09-14T10:51:30.632Z,78.55
2017-09-14T10:52:30.652Z,79.02
2017-09-14T10:53:30.670Z,80.51
2017-09-14T10:54:30.695Z,80.22
2017-09-14T10:55:30.711Z,79.46
2017-09-14T10:56:30.738Z,81.56
2017-09-14T10:57:30.757Z,80.9
2017-09-14T10:58:30.772Z,82.67
2017-09-14T10:59:30.800Z,82.9
2017-09-14T11:00:30.811Z,83.18
2017-09-14T11:01:30.832Z,84.23
2017-09-14T11:02:30.857Z,85.29
2017-09-14T11:03:30.934Z,87.25
2017-09-14T11:04:30.899Z,87.82
2017-09-14T11:05:30.919Z,88.92
2017-09-14T11:06:30.936Z,89.31
2017-09-14T11:07:30.957Z,90.64
2017-09-14T11:08:30.977Z,91.88
2017-09-14T11:09:31.000Z,93.02
2017-09-14T11:10:31.065Z,93.22
2017-09-14T11:11:31.050Z,92.65
2017-09-14T11:12:31.052Z,92.36
2017-09-14T11:13:31.072Z,93.22
2017-09-14T11:14:31.098Z,92.46
2017-09-14T11:15:31.110Z,93.17
2017-09-14T11:16:31.130Z,92.79
2017-09-14T11:17:31.151Z,94.12
2017-09-14T11:18:31.223Z,94.12
2017-09-14T11:19:31.189Z,93.08
2017-09-14T11:20:31.206Z,93.93
2017-09-14T11:21:31.229Z,94.32
2017-09-14T11:22:31.246Z,95.17
2017-09-14T11:23:31.264Z,94.79
2017-09-14T11:24:31.292Z,95.75
2017-09-14T11:25:31.302Z,95.46
2017-09-14T11:26:32.050Z,96.8
2017-09-14T11:27:32.421Z,96.7
2017-09-14T11:28:31.361Z,96.98
2017-09-14T11:29:31.386Z,94.79
2017-09-14T11:30:31.403Z,95.27
2017-09-14T11:31:31.422Z,94.12
2017-09-14T11:32:31.439Z,95.56
2017-09-14T11:33:31.510Z,94.51
2017-09-14T11:34:31.477Z,95.75
2017-09-14T11:35:31.493Z,95.37
2017-09-14T11:36:31.518Z,96.22
2017-09-14T11:37:31.533Z,96.03
2017-09-14T11:38:31.560Z,95.75
2017-09-14T11:39:31.577Z,95.46
2017-09-14T11:40:31.593Z,96.61
2017-09-14T11:41:31.623Z,95.94
2017-09-14T11:42:31.637Z,95.17
2017-09-14T11:43:31.648Z,95.27
2017-09-14T11:44:31.669Z,96.13
2017-09-14T11:45:31.687Z,95.56
2017-09-14T11:46:31.706Z,95.84
2017-09-14T11:47:31.727Z,96.22
2017-09-14T11:48:31.747Z,96.41
2017-09-14T11:49:31.839Z,96.22
2017-09-14T11:50:31.783Z,96.27
2017-09-14T11:51:31.800Z,95.79
2017-09-14T11:52:31.821Z,94.7
2017-09-14T11:53:31.843Z,95.32
2017-09-14T11:54:31.870Z,95.98
2017-09-14T11:55:31.877Z,96.36
2017-09-14T11:56:31.936Z,96.65
2017-09-14T11:57:31.921Z,96.08
2017-09-14T11:58:31.933Z,96.36
2017-09-14T11:59:31.960Z,96.75
2017-09-14T12:00:31.973Z,97.51
2017-09-14T12:01:31.990Z,96.65
2017-09-14T12:02:32.008Z,95.32
2017-09-14T12:03:32.030Z,96.27
2017-09-14T12:04:32.050Z,97.13
2017-09-14T12:05:32.067Z,97.51
2017-09-14T12:06:32.081Z,97.7
2017-09-14T12:07:32.154Z,97.32
2017-09-14T12:08:32.125Z,97.22
2017-09-14T12:09:32.143Z,99.04
2017-09-14T12:10:32.467Z,97.99
2017-09-14T12:11:32.190Z,97.8
2017-09-14T12:12:32.199Z,99.22
2017-09-14T12:13:32.223Z,98.65
2017-09-14T12:14:32.554Z,97.51
2017-09-14T12:15:32.249Z,97.13
2017-09-14T12:16:32.276Z,96.17
2017-09-14T12:17:32.618Z,96.36
2017-09-14T12:18:32.624Z,95.94
2017-09-14T12:19:32.323Z,97.56
2017-09-14T12:20:32.343Z,97.17
2017-09-14T12:21:32.362Z,96.41
2017-09-14T12:22:32.379Z,96.98
2017-09-14T12:23:32.414Z,96.94
2017-09-14T12:24:32.419Z,96.89
2017-09-14T12:25:32.483Z,96.98
2017-09-14T12:26:32.472Z,96.7
2017-09-14T12:27:32.799Z,96.89
2017-09-14T12:28:32.490Z,97.17
2017-09-14T12:29:32.510Z,96.7
2017-09-14T12:30:32.537Z,98.51
2017-09-14T12:31:32.551Z,98.22
2017-09-14T12:32:32.563Z,98.51
2017-09-14T12:33:32.584Z,97.94
2017-09-14T12:34:32.602Z,98.79
2017-09-14T12:35:32.770Z,98.51
2017-09-14T12:36:32.637Z,99.18
2017-09-14T12:37:32.656Z,99.65
2017-09-14T12:38:32.679Z,98.89
2017-09-14T12:39:32.706Z,99.08
2017-09-14T12:40:32.720Z,96.7
2017-09-14T12:41:33.096Z,97.36
2017-09-14T12:42:32.745Z,98.65
2017-09-14T12:43:32.766Z,98.51
2017-09-14T12:44:32.781Z,99.46
2017-09-14T12:45:33.117Z,99.18
2017-09-14T12:46:32.818Z,99.75
2017-09-14T12:47:32.841Z,99.65
2017-09-14T12:48:32.856Z,98.89
2017-09-14T12:49:32.879Z,98.7
2017-09-14T12:50:32.890Z,98.6
2017-09-14T12:51:32.914Z,99.51
2017-09-14T12:52:32.926Z,98.41
2017-09-14T12:53:32.945Z,98.32
2017-09-14T12:54:32.971Z,97.75
2017-09-14T12:55:32.985Z,98.41